Observation data for Seymour on 07/20/2019      Previous  Date       Current Mesonet Observations  Soil Data  Daily Summary Page  Observations in Plain Language
KSE1 200500Z 15013KT 29/19 A2987 RMK A01 T02880188  RH  058%=      5-min Rain = 0
KSE1 200505Z 15013G18KT 29/19 A2987 RMK A01 T02870188  RH  058%=      5-min Rain = 0
KSE1 200510Z 15012G18KT 29/19 A2987 RMK A01 T02860188  RH  058%=      5-min Rain = 0
KSE1 200515Z 15014G19KT 29/19 A2987 RMK A01 T02860188  RH  059%=      5-min Rain = 0
KSE1 200520Z 15013G18KT 29/19 A2987 RMK A01 T02860188  RH  059%=      5-min Rain = 0
KSE1 200525Z 15013G18KT 29/19 A2987 RMK A01 T02850188  RH  059%=      5-min Rain = 0
KSE1 200530Z 15013KT 28/19 A2987 RMK A01 T02840188  RH  059%=      5-min Rain = 0
KSE1 200535Z 15012G18KT 28/19 A2987 RMK A01 T02840189  RH  059%=      5-min Rain = 0
KSE1 200540Z 15013G20KT 28/19 A2987 RMK A01 T02830189  RH  060%=      5-min Rain = 0
KSE1 200545Z 15014G19KT 28/19 A2987 RMK A01 T02820189  RH  060%=      5-min Rain = 0
KSE1 200550Z 15013G19KT 28/19 A2987 RMK A01 T02820189  RH  060%=      5-min Rain = 0
KSE1 200555Z 16013G22KT 28/19 A2987 RMK A01 T02810189  RH  061%=      5-min Rain = 0
KSE1 200600Z 16012KT 28/19 A2987 RMK A01 T02790189  RH  061%=      5-min Rain = 0
KSE1 200605Z 16012KT 28/19 A2987 RMK A01 T02780189  RH  062%=      5-min Rain = 0
KSE1 200610Z 16012KT 28/19 A2987 RMK A01 T02780189  RH  062%=      5-min Rain = 0
KSE1 200615Z 16012G17KT 28/19 A2987 RMK A01 T02760189  RH  062%=      5-min Rain = 0
KSE1 200620Z 16012KT 28/19 A2987 RMK A01 T02750189  RH  063%=      5-min Rain = 0
KSE1 200625Z 16011KT 27/19 A2987 RMK A01 T02740189  RH  063%=      5-min Rain = 0
KSE1 200630Z 17012KT 27/19 A2987 RMK A01 T02730189  RH  064%=      5-min Rain = 0
KSE1 200635Z 17012KT 27/19 A2987 RMK A01 T02730189  RH  064%=      5-min Rain = 0
KSE1 200640Z 17011KT 27/19 A2987 RMK A01 T02720188  RH  064%=      5-min Rain = 0
KSE1 200645Z 17011KT 27/19 A2987 RMK A01 T02700189  RH  064%=      5-min Rain = 0
KSE1 200650Z 17010G15KT 27/19 A2987 RMK A01 T02700188  RH  064%=      5-min Rain = 0
KSE1 200655Z 17011KT 27/19 A2987 RMK A01 T02700188  RH  064%=      5-min Rain = 0
KSE1 200700Z 17011KT 27/19 A2987 RMK A01 T02700188  RH  064%=      5-min Rain = 0
KSE1 200705Z 17010KT 27/19 A2987 RMK A01 T02700187  RH  064%=      5-min Rain = 0
KSE1 200710Z 17010KT 27/19 A2987 RMK A01 T02690186  RH  064%=      5-min Rain = 0
KSE1 200715Z 17010KT 27/19 A2987 RMK A01 T02700186  RH  063%=      5-min Rain = 0
KSE1 200720Z 17010KT 27/19 A2986 RMK A01 T02700185  RH  063%=      5-min Rain = 0
KSE1 200725Z 17010KT 27/19 A2986 RMK A01 T02710185  RH  063%=      5-min Rain = 0
KSE1 200730Z 17010KT 27/18 A2986 RMK A01 T02700184  RH  063%=      5-min Rain = 0
KSE1 200735Z 16010KT 27/18 A2986 RMK A01 T02700184  RH  063%=      5-min Rain = 0
KSE1 200740Z 17010KT 27/18 A2986 RMK A01 T02700184  RH  063%=      5-min Rain = 0
KSE1 200745Z 17011KT 27/18 A2986 RMK A01 T02700184  RH  063%=      5-min Rain = 0
KSE1 200750Z 17011KT 27/18 A2986 RMK A01 T02700184  RH  063%=      5-min Rain = 0
KSE1 200755Z 16011KT 27/19 A2986 RMK A01 T02690185  RH  063%=      5-min Rain = 0
KSE1 200800Z 16011KT 27/19 A2986 RMK A01 T02680185  RH  064%=      5-min Rain = 0
KSE1 200805Z 16011G16KT 27/19 A2986 RMK A01 T02650185  RH  065%=      5-min Rain = 0
KSE1 200810Z 16012KT 27/19 A2985 RMK A01 T02650185  RH  065%=      5-min Rain = 0
KSE1 200815Z 16011G16KT 27/19 A2985 RMK A01 T02650185  RH  065%=      5-min Rain = 0
KSE1 200820Z 17012KT 27/19 A2985 RMK A01 T02650185  RH  065%=      5-min Rain = 0
KSE1 200825Z 16011KT 26/19 A2985 RMK A01 T02640185  RH  066%=      5-min Rain = 0
KSE1 200830Z 16010G15KT 26/19 A2985 RMK A01 T02620186  RH  066%=      5-min Rain = 0
KSE1 200835Z 16011KT 26/19 A2985 RMK A01 T02610186  RH  067%=      5-min Rain = 0
KSE1 200840Z 17011KT 26/19 A2986 RMK A01 T02600185  RH  067%=      5-min Rain = 0
KSE1 200845Z 16011KT 26/19 A2985 RMK A01 T02590186  RH  067%=      5-min Rain = 0
KSE1 200850Z 16011KT 26/19 A2985 RMK A01 T02580186  RH  068%=      5-min Rain = 0
KSE1 200855Z 16011KT 26/19 A2985 RMK A01 T02580186  RH  068%=      5-min Rain = 0
KSE1 200900Z 16011KT 26/19 A2985 RMK A01 T02570186  RH  068%=      5-min Rain = 0
KSE1 200905Z 16011KT 26/19 A2985 RMK A01 T02560186  RH  068%=      5-min Rain = 0
KSE1 200910Z 17010KT 26/19 A2985 RMK A01 T02550186  RH  069%=      5-min Rain = 0
KSE1 200915Z 17011KT 26/19 A2986 RMK A01 T02550186  RH  069%=      5-min Rain = 0
KSE1 200920Z 17011KT 26/19 A2986 RMK A01 T02550186  RH  069%=      5-min Rain = 0
KSE1 200925Z 17011KT 26/19 A2986 RMK A01 T02550187  RH  069%=      5-min Rain = 0
KSE1 200930Z 17010G15KT 26/19 A2986 RMK A01 T02550187  RH  070%=      5-min Rain = 0
KSE1 200935Z 17010KT 25/19 A2986 RMK A01 T02540188  RH  071%=      5-min Rain = 0
KSE1 200940Z 17010KT 25/19 A2986 RMK A01 T02530188  RH  071%=      5-min Rain = 0
KSE1 200945Z 17010KT 25/19 A2986 RMK A01 T02530188  RH  071%=      5-min Rain = 0
KSE1 200950Z 17010KT 25/19 A2986 RMK A01 T02530189  RH  071%=      5-min Rain = 0
KSE1 200955Z 17010KT 25/19 A2986 RMK A01 T02530189  RH  072%=      5-min Rain = 0
KSE1 201000Z 17010KT 25/19 A2986 RMK A01 T02540190  RH  072%=      5-min Rain = 0
KSE1 201005Z 17010G15KT 26/19 A2986 RMK A01 T02550191  RH  071%=      5-min Rain = 0
KSE1 201010Z 17010KT 26/19 A2986 RMK A01 T02550191  RH  072%=      5-min Rain = 0
KSE1 201015Z 17010KT 26/19 A2986 RMK A01 T02550192  RH  072%=      5-min Rain = 0
KSE1 201020Z 17011KT 25/19 A2986 RMK A01 T02540192  RH  072%=      5-min Rain = 0
KSE1 201025Z 17010KT 25/19 A2987 RMK A01 T02520192  RH  073%=      5-min Rain = 0
KSE1 201030Z 17010KT 25/19 A2987 RMK A01 T02500191  RH  074%=      5-min Rain = 0
KSE1 201035Z 17010KT 25/19 A2987 RMK A01 T02490191  RH  074%=      5-min Rain = 0
KSE1 201040Z 17010KT 25/19 A2987 RMK A01 T02470191  RH  075%=      5-min Rain = 0
KSE1 201045Z 17009KT 25/19 A2987 RMK A01 T02460191  RH  075%=      5-min Rain = 0
KSE1 201050Z 17009KT 24/19 A2987 RMK A01 T02440191  RH  076%=      5-min Rain = 0
KSE1 201055Z 17008KT 24/19 A2987 RMK A01 T02430191  RH  077%=      5-min Rain = 0
KSE1 201100Z 17008KT 24/19 A2987 RMK A01 T02420191  RH  077%=      5-min Rain = 0
KSE1 201105Z 17009KT 24/19 A2987 RMK A01 T02420192  RH  078%=      5-min Rain = 0
KSE1 201110Z 17008KT 24/19 A2988 RMK A01 T02420192  RH  078%=      5-min Rain = 0
KSE1 201115Z 17008KT 24/19 A2988 RMK A01 T02410192  RH  078%=      5-min Rain = 0
KSE1 201120Z 17008KT 24/19 A2988 RMK A01 T02410193  RH  079%=      5-min Rain = 0
KSE1 201125Z 17007KT 24/19 A2988 RMK A01 T02410193  RH  079%=      5-min Rain = 0
KSE1 201130Z 17008KT 24/19 A2988 RMK A01 T02410193  RH  079%=      5-min Rain = 0
KSE1 201135Z 17007KT 24/19 A2988 RMK A01 T02410194  RH  080%=      5-min Rain = 0
KSE1 201140Z 17007KT 24/20 A2989 RMK A01 T02410195  RH  080%=      5-min Rain = 0
KSE1 201145Z 18007KT 24/20 A2989 RMK A01 T02420196  RH  080%=      5-min Rain = 0
KSE1 201150Z 18008KT 24/20 A2989 RMK A01 T02430196  RH  079%=      5-min Rain = 0
KSE1 201155Z 17007KT 24/20 A2989 RMK A01 T02430197  RH  080%=      5-min Rain = 0
KSE1 201200Z 17006KT 24/20 A2989 RMK A01 T02420197  RH  080%=      5-min Rain = 0
KSE1 201205Z 17006KT 24/20 A299 RMK A01 T02420197  RH  081%=      5-min Rain = 0
KSE1 201210Z 17007KT 24/20 A299 RMK A01 T02430198  RH  080%=      5-min Rain = 0
KSE1 201215Z 17008KT 25/20 A299 RMK A01 T02460198  RH  079%=      5-min Rain = 0
KSE1 201220Z 16007KT 25/20 A299 RMK A01 T02460199  RH  079%=      5-min Rain = 0
KSE1 201225Z 17007KT 25/20 A299 RMK A01 T02480199  RH  079%=      5-min Rain = 0
KSE1 201230Z 17007KT 25/20 A299 RMK A01 T02490200  RH  078%=      5-min Rain = 0
KSE1 201235Z 17007KT 25/20 A299 RMK A01 T02510200  RH  078%=      5-min Rain = 0
KSE1 201240Z 17008KT 25/20 A299 RMK A01 T02530201  RH  077%=      5-min Rain = 0
KSE1 201245Z 16008KT 25/20 A299 RMK A01 T02540201  RH  077%=      5-min Rain = 0
KSE1 201250Z 16008KT 26/20 A299 RMK A01 T02550201  RH  077%=      5-min Rain = 0
KSE1 201255Z 16008KT 26/20 A299 RMK A01 T02560201  RH  076%=      5-min Rain = 0
KSE1 201300Z 16008KT 26/20 A299 RMK A01 T02570202  RH  076%=      5-min Rain = 0
KSE1 201305Z 16009KT 26/20 A2991 RMK A01 T02590203  RH  075%=      5-min Rain = 0
KSE1 201310Z 16009KT 26/20 A2991 RMK A01 T02610203  RH  075%=      5-min Rain = 0
KSE1 201315Z 17011KT 26/20 A299 RMK A01 T02640203  RH  073%=      5-min Rain = 0
KSE1 201320Z 17013KT 27/20 A299 RMK A01 T02660203  RH  072%=      5-min Rain = 0
KSE1 201325Z 17012G18KT 27/20 A2991 RMK A01 T02690204  RH  072%=      5-min Rain = 0
KSE1 201330Z 17013KT 27/20 A2991 RMK A01 T02700204  RH  071%=      5-min Rain = 0
KSE1 201335Z 17012G18KT 27/20 A2991 RMK A01 T02710204  RH  071%=      5-min Rain = 0
KSE1 201340Z 17013G18KT 27/20 A2991 RMK A01 T02720204  RH  070%=      5-min Rain = 0
KSE1 201345Z 18013G18KT 27/20 A2991 RMK A01 T02730204  RH  070%=      5-min Rain = 0
KSE1 201350Z 18013G18KT 28/20 A2991 RMK A01 T02750204  RH  070%=      5-min Rain = 0
KSE1 201355Z 18014KT 28/20 A2991 RMK A01 T02760204  RH  069%=      5-min Rain = 0
KSE1 201400Z 18013G19KT 28/21 A2991 RMK A01 T02770205  RH  069%=      5-min Rain = 0
KSE1 201405Z 19013G19KT 28/21 A2991 RMK A01 T02790205  RH  068%=      5-min Rain = 0
KSE1 201410Z 18013G19KT 28/21 A2991 RMK A01 T02820205  RH  067%=      5-min Rain = 0
KSE1 201415Z 18013G18KT 28/20 A2991 RMK A01 T02820204  RH  066%=      5-min Rain = 0
KSE1 201420Z 18015G20KT 28/20 A2991 RMK A01 T02840203  RH  065%=      5-min Rain = 0
KSE1 201425Z 18012G20KT 29/20 A2991 RMK A01 T02860202  RH  064%=      5-min Rain = 0
KSE1 201430Z 19013KT 29/20 A2991 RMK A01 T02900201  RH  062%=      5-min Rain = 0
KSE1 201435Z 18016KT 29/20 A2991 RMK A01 T02910196  RH  060%=      5-min Rain = 0
KSE1 201440Z 19013G18KT 29/20 A2991 RMK A01 T02930198  RH  060%=      5-min Rain = 0
KSE1 201445Z 19015G20KT 30/20 A2991 RMK A01 T02950195  RH  058%=      5-min Rain = 0
KSE1 201450Z 18014G21KT 30/19 A2991 RMK A01 T02970194  RH  057%=      5-min Rain = 0
KSE1 201455Z 18015G20KT 30/19 A2991 RMK A01 T02990193  RH  056%=      5-min Rain = 0
KSE1 201500Z 18014G20KT 30/19 A2991 RMK A01 T02990193  RH  056%=      5-min Rain = 0
KSE1 201505Z 18015G20KT 30/19 A2991 RMK A01 T03020193  RH  055%=      5-min Rain = 0
KSE1 201510Z 19014G21KT 30/19 A2991 RMK A01 T03030193  RH  055%=      5-min Rain = 0
KSE1 201515Z 18015G20KT 31/19 A2991 RMK A01 T03050193  RH  054%=      5-min Rain = 0
KSE1 201520Z 18016G21KT 31/19 A2991 RMK A01 T03050192  RH  054%=      5-min Rain = 0
KSE1 201525Z 18015G22KT 31/19 A2991 RMK A01 T03060192  RH  053%=      5-min Rain = 0
KSE1 201530Z 18015G20KT 31/19 A2991 RMK A01 T03080193  RH  053%=      5-min Rain = 0
KSE1 201535Z 18015G20KT 31/19 A2991 RMK A01 T03080193  RH  053%=      5-min Rain = 0
KSE1 201540Z 19014G21KT 31/19 A2991 RMK A01 T03120194  RH  052%=      5-min Rain = 0
KSE1 201545Z 19013G19KT 32/20 A2991 RMK A01 T03150195  RH  052%=      5-min Rain = 0
KSE1 201550Z 18013G19KT 31/19 A2991 RMK A01 T03140194  RH  052%=      5-min Rain = 0
KSE1 201555Z 18013G18KT 32/20 A2991 RMK A01 T03160195  RH  052%=      5-min Rain = 0
KSE1 201600Z 17016KT 32/19 A2991 RMK A01 T03160194  RH  051%=      5-min Rain = 0
KSE1 201605Z 18013KT 32/19 A2991 RMK A01 T03170194  RH  051%=      5-min Rain = 0
KSE1 201610Z 19013G18KT 32/19 A299 RMK A01 T03190194  RH  051%=      5-min Rain = 0
KSE1 201615Z 18014G19KT 32/19 A299 RMK A01 T03180194  RH  051%=      5-min Rain = 0
KSE1 201620Z 18013G19KT 32/20 A299 RMK A01 T03240195  RH  049%=      5-min Rain = 0
KSE1 201625Z 19013KT 32/19 A299 RMK A01 T03240194  RH  049%=      5-min Rain = 0
KSE1 201630Z 18015G20KT 32/19 A299 RMK A01 T03240192  RH  048%=      5-min Rain = 0
KSE1 201635Z 18014G20KT 33/20 A299 RMK A01 T03280195  RH  048%=      5-min Rain = 0
KSE1 201640Z 17017G22KT 33/19 A2989 RMK A01 T03280192  RH  047%=      5-min Rain = 0
KSE1 201645Z 17015G21KT 33/19 A2989 RMK A01 T03310192  RH  047%=      5-min Rain = 0
KSE1 201650Z 18013KT 33/19 A2989 RMK A01 T03330194  RH  047%=      5-min Rain = 0
KSE1 201655Z 17014G20KT 33/20 A2989 RMK A01 T03340195  RH  046%=      5-min Rain = 0
KSE1 201700Z 18016G21KT 33/19 A2989 RMK A01 T03340190  RH  045%=      5-min Rain = 0
KSE1 201705Z 18014G19KT 33/19 A2989 RMK A01 T03340191  RH  045%=      5-min Rain = 0
KSE1 201710Z 17014G21KT 34/20 A299 RMK A01 T03380195  RH  045%=      5-min Rain = 0
KSE1 201715Z 16013G22KT 34/20 A299 RMK A01 T03380196  RH  046%=      5-min Rain = 0
KSE1 201720Z 18016G21KT 34/19 A299 RMK A01 T03380190  RH  044%=      5-min Rain = 0
KSE1 201725Z 19013G20KT 34/19 A299 RMK A01 T03400190  RH  043%=      5-min Rain = 0
KSE1 201730Z 18013G21KT 34/19 A299 RMK A01 T03440193  RH  043%=      5-min Rain = 0
KSE1 201735Z 17014G21KT 34/19 A299 RMK A01 T03440193  RH  043%=      5-min Rain = 0
KSE1 201740Z 17015KT 35/19 A2989 RMK A01 T03460193  RH  043%=      5-min Rain = 0
KSE1 201745Z 18015G22KT 35/19 A2989 RMK A01 T03470191  RH  042%=      5-min Rain = 0
KSE1 201750Z 17013G20KT 35/19 A2989 RMK A01 T03480193  RH  043%=      5-min Rain = 0
KSE1 201755Z 15014G20KT 35/19 A2989 RMK A01 T03470191  RH  042%=      5-min Rain = 0
KSE1 201800Z 16016G22KT 35/19 A2989 RMK A01 T03490191  RH  042%=      5-min Rain = 0
KSE1 201805Z 16015G20KT 35/19 A2989 RMK A01 T03490189  RH  041%=      5-min Rain = 0
KSE1 201810Z 15014G19KT 35/19 A2989 RMK A01 T03480193  RH  042%=      5-min Rain = 0
KSE1 201815Z 15013G18KT 35/20 A2988 RMK A01 T03520197  RH  043%=      5-min Rain = 0
KSE1 201820Z 16013KT 35/20 A2988 RMK A01 T03510197  RH  043%=      5-min Rain = 0
KSE1 201825Z 15013G19KT 35/19 A2988 RMK A01 T03510194  RH  042%=      5-min Rain = 0
KSE1 201830Z 15015G21KT 35/20 A2988 RMK A01 T03490195  RH  043%=      5-min Rain = 0
KSE1 201835Z 16011G17KT 35/20 A2988 RMK A01 T03500199  RH  044%=      5-min Rain = 0
KSE1 201840Z 15013G18KT 35/20 A2988 RMK A01 T03530197  RH  042%=      5-min Rain = 0
KSE1 201845Z 16014KT 35/20 A2988 RMK A01 T03500195  RH  043%=      5-min Rain = 0
KSE1 201850Z 15013G20KT 35/20 A2987 RMK A01 T03530196  RH  042%=      5-min Rain = 0
KSE1 201855Z 16013G18KT 35/19 A2987 RMK A01 T03530194  RH  042%=      5-min Rain = 0
KSE1 201900Z 17014G20KT 35/19 A2987 RMK A01 T03540193  RH  041%=      5-min Rain = 0
KSE1 201905Z 15015G20KT 35/20 A2987 RMK A01 T03530195  RH  042%=      5-min Rain = 0
KSE1 201910Z 15013G21KT 35/20 A2986 RMK A01 T03540195  RH  042%=      5-min Rain = 0
KSE1 201915Z 16015G20KT 36/19 A2986 RMK A01 T03550194  RH  041%=      5-min Rain = 0
KSE1 201920Z 16014G19KT 36/19 A2986 RMK A01 T03550193  RH  041%=      5-min Rain = 0
KSE1 201925Z 14014G19KT 36/20 A2986 RMK A01 T03560195  RH  041%=      5-min Rain = 0
KSE1 201930Z 17015G24KT 36/19 A2986 RMK A01 T03580192  RH  040%=      5-min Rain = 0
KSE1 201935Z 17015G23KT 36/19 A2986 RMK A01 T03580193  RH  040%=      5-min Rain = 0
KSE1 201940Z 17014G22KT 36/19 A2985 RMK A01 T03580192  RH  040%=      5-min Rain = 0
KSE1 201945Z 15016G21KT 36/19 A2985 RMK A01 T03570193  RH  041%=      5-min Rain = 0
KSE1 201950Z 16013KT 36/20 A2985 RMK A01 T03590196  RH  041%=      5-min Rain = 0
KSE1 201955Z 15015KT 36/20 A2985 RMK A01 T03610195  RH  040%=      5-min Rain = 0
KSE1 202000Z 16014G19KT 36/19 A2985 RMK A01 T03600194  RH  040%=      5-min Rain = 0
KSE1 202005Z 16015G20KT 36/19 A2985 RMK A01 T03610191  RH  039%=      5-min Rain = 0
KSE1 202010Z 14015G22KT 36/20 A2985 RMK A01 T03580197  RH  041%=      5-min Rain = 0
KSE1 202015Z 16016KT 36/19 A2985 RMK A01 T03620192  RH  039%=      5-min Rain = 0
KSE1 202020Z 15013G20KT 36/19 A2985 RMK A01 T03590193  RH  040%=      5-min Rain = 0
KSE1 202025Z 15013G19KT 36/20 A2984 RMK A01 T03620197  RH  041%=      5-min Rain = 0
KSE1 202030Z 16013G20KT 36/19 A2984 RMK A01 T03630191  RH  039%=      5-min Rain = 0
KSE1 202035Z 14014G21KT 36/20 A2984 RMK A01 T03620196  RH  040%=      5-min Rain = 0
KSE1 202040Z 17014G20KT 36/19 A2984 RMK A01 T03630190  RH  038%=      5-min Rain = 0
KSE1 202045Z 16015G23KT 36/19 A2984 RMK A01 T03620192  RH  039%=      5-min Rain = 0
KSE1 202050Z 17014G21KT 36/19 A2984 RMK A01 T03610185  RH  038%=      5-min Rain = 0
KSE1 202055Z 16014G19KT 36/19 A2984 RMK A01 T03620190  RH  038%=      5-min Rain = 0
KSE1 202100Z 14015KT 36/20 A2984 RMK A01 T03630195  RH  040%=      5-min Rain = 0
KSE1 202105Z 16014G23KT 37/19 A2983 RMK A01 T03670193  RH  038%=      5-min Rain = 0
KSE1 202110Z 15013G19KT 37/19 A2983 RMK A01 T03650190  RH  038%=      5-min Rain = 0
KSE1 202115Z 16013G21KT 37/19 A2983 RMK A01 T03670193  RH  038%=      5-min Rain = 0
KSE1 202120Z 15014G20KT 36/19 A2983 RMK A01 T03630189  RH  038%=      5-min Rain = 0
KSE1 202125Z 15015G21KT 36/19 A2983 RMK A01 T03640191  RH  038%=      5-min Rain = 0
KSE1 202130Z 15013G20KT 37/19 A2983 RMK A01 T03650191  RH  038%=      5-min Rain = 0
KSE1 202135Z 17015G20KT 37/19 A2983 RMK A01 T03650187  RH  037%=      5-min Rain = 0
KSE1 202140Z 15014G19KT 36/19 A2983 RMK A01 T03640188  RH  038%=      5-min Rain = 0
KSE1 202145Z 15014G23KT 36/19 A2983 RMK A01 T03640188  RH  038%=      5-min Rain = 0
KSE1 202150Z 18014G20KT 36/18 A2983 RMK A01 T03630182  RH  036%=      5-min Rain = 0
KSE1 202155Z 15015KT 36/19 A2982 RMK A01 T03640187  RH  037%=      5-min Rain = 0
KSE1 202200Z 15015G23KT 36/19 A2982 RMK A01 T03630186  RH  037%=      5-min Rain = 0
KSE1 202205Z 17014G19KT 36/19 A2982 RMK A01 T03640185  RH  037%=      5-min Rain = 0
KSE1 202210Z 15014G22KT 36/19 A2981 RMK A01 T03640187  RH  037%=      5-min Rain = 0
KSE1 202215Z 15016G22KT 37/19 A2981 RMK A01 T03650185  RH  037%=      5-min Rain = 0
KSE1 202220Z 16016KT 36/18 A2981 RMK A01 T03640182  RH  036%=      5-min Rain = 0
KSE1 202225Z 16013G19KT 37/19 A2981 RMK A01 T03660187  RH  037%=      5-min Rain = 0
KSE1 202230Z 15015G20KT 36/18 A2981 RMK A01 T03640182  RH  036%=      5-min Rain = 0
KSE1 202235Z 15016G22KT 36/18 A2981 RMK A01 T03620184  RH  037%=      5-min Rain = 0
KSE1 202240Z 15015G20KT 36/19 A2981 RMK A01 T03610186  RH  038%=      5-min Rain = 0
KSE1 202245Z 16015KT 36/19 A2981 RMK A01 T03620185  RH  037%=      5-min Rain = 0
KSE1 202250Z 16015G22KT 36/18 A2981 RMK A01 T03620179  RH  036%=      5-min Rain = 0
KSE1 202255Z 16015G21KT 36/18 A298 RMK A01 T03620178  RH  036%=      5-min Rain = 0
KSE1 202300Z 16014G20KT 36/18 A298 RMK A01 T03600181  RH  037%=      5-min Rain = 0
KSE1 202305Z 16014G22KT 36/18 A298 RMK A01 T03620182  RH  037%=      5-min Rain = 0
KSE1 202310Z 15015G24KT 36/18 A298 RMK A01 T03610181  RH  037%=      5-min Rain = 0
KSE1 202315Z 14015G21KT 36/18 A298 RMK A01 T03600180  RH  037%=      5-min Rain = 0
KSE1 202320Z 14015G22KT 36/18 A298 RMK A01 T03590180  RH  037%=      5-min Rain = 0
KSE1 202325Z 15015KT 36/18 A298 RMK A01 T03580179  RH  037%=      5-min Rain = 0
KSE1 202330Z 16015G22KT 36/18 A298 RMK A01 T03590178  RH  036%=      5-min Rain = 0
KSE1 202335Z 16014G19KT 36/18 A298 RMK A01 T03580177  RH  036%=      5-min Rain = 0
KSE1 202340Z 15015G21KT 36/18 A298 RMK A01 T03580179  RH  037%=      5-min Rain = 0
KSE1 202345Z 15013G19KT 36/18 A298 RMK A01 T03570180  RH  037%=      5-min Rain = 0
KSE1 202350Z 15014G20KT 36/18 A298 RMK A01 T03560180  RH  037%=      5-min Rain = 0
KSE1 202355Z 15013G19KT 36/18 A298 RMK A01 T03550177  RH  037%=      5-min Rain = 0
KSE1 210000Z 16014G21KT 36/18 A298 RMK A01 T03550177  RH  037%=      5-min Rain = 0
KSE1 210005Z 15015G22KT 35/18 A298 RMK A01 T03530175  RH  037%=      5-min Rain = 0
KSE1 210010Z 15015G22KT 35/18 A298 RMK A01 T03530175  RH  037%=      5-min Rain = 0
KSE1 210015Z 15016G21KT 35/17 A298 RMK A01 T03520174  RH  037%=      5-min Rain = 0
KSE1 210020Z 15015KT 35/17 A298 RMK A01 T03510174  RH  037%=      5-min Rain = 0
KSE1 210025Z 15015G20KT 35/17 A298 RMK A01 T03500174  RH  037%=      5-min Rain = 0
KSE1 210030Z 15012G17KT 35/18 A2981 RMK A01 T03500176  RH  038%=      5-min Rain = 0
KSE1 210035Z 15012G18KT 35/18 A2981 RMK A01 T03480177  RH  038%=      5-min Rain = 0
KSE1 210040Z 15013KT 35/18 A298 RMK A01 T03470177  RH  038%=      5-min Rain = 0
KSE1 210045Z 15012G17KT 35/18 A2981 RMK A01 T03460178  RH  039%=      5-min Rain = 0
KSE1 210050Z 14013G20KT 35/18 A2981 RMK A01 T03450177  RH  039%=      5-min Rain = 0
KSE1 210055Z 14014G20KT 34/18 A298 RMK A01 T03430176  RH  039%=      5-min Rain = 0
KSE1 210100Z 14012KT 34/18 A298 RMK A01 T03410178  RH  040%=      5-min Rain = 0
KSE1 210105Z 14010G15KT 34/18 A2981 RMK A01 T03390178  RH  041%=      5-min Rain = 0
KSE1 210110Z 15012KT 34/18 A2981 RMK A01 T03370178  RH  041%=      5-min Rain = 0
KSE1 210115Z 14012KT 34/18 A2981 RMK A01 T03370178  RH  041%=      5-min Rain = 0
KSE1 210120Z 14010G15KT 34/18 A2981 RMK A01 T03350178  RH  042%=      5-min Rain = 0
KSE1 210125Z 14009KT 33/18 A2981 RMK A01 T03320180  RH  043%=      5-min Rain = 0
KSE1 210130Z 14010KT 33/18 A2981 RMK A01 T03280179  RH  044%=      5-min Rain = 0
KSE1 210135Z 14011G16KT 33/18 A2981 RMK A01 T03280178  RH  043%=      5-min Rain = 0
KSE1 210140Z 14011KT 33/18 A2981 RMK A01 T03270177  RH  043%=      5-min Rain = 0
KSE1 210145Z 14010G15KT 33/18 A2981 RMK A01 T03250176  RH  043%=      5-min Rain = 0
KSE1 210150Z 14010KT 32/18 A2981 RMK A01 T03230175  RH  043%=      5-min Rain = 0
KSE1 210155Z 14010KT 32/18 A2981 RMK A01 T03220175  RH  044%=      5-min Rain = 0
KSE1 210200Z 13011KT 32/17 A2982 RMK A01 T03200174  RH  044%=      5-min Rain = 0
KSE1 210205Z 13010KT 32/18 A2982 RMK A01 T03180175  RH  045%=      5-min Rain = 0
KSE1 210210Z 13009KT 32/18 A2982 RMK A01 T03150176  RH  046%=      5-min Rain = 0
KSE1 210215Z 13008KT 31/18 A2982 RMK A01 T03100177  RH  047%=      5-min Rain = 0
KSE1 210220Z 13008KT 30/18 A2982 RMK A01 T03040178  RH  049%=      5-min Rain = 0
KSE1 210225Z 13009KT 31/18 A2982 RMK A01 T03050179  RH  049%=      5-min Rain = 0
KSE1 210230Z 13010KT 31/18 A2982 RMK A01 T03050179  RH  049%=      5-min Rain = 0
KSE1 210235Z 13010KT 31/18 A2982 RMK A01 T03050179  RH  049%=      5-min Rain = 0
KSE1 210240Z 13010KT 31/18 A2982 RMK A01 T03050179  RH  050%=      5-min Rain = 0
KSE1 210245Z 13010KT 31/18 A2983 RMK A01 T03050179  RH  050%=      5-min Rain = 0
KSE1 210250Z 13010KT 30/18 A2983 RMK A01 T03030179  RH  050%=      5-min Rain = 0
KSE1 210255Z 13010G15KT 30/18 A2983 RMK A01 T03030178  RH  050%=      5-min Rain = 0
KSE1 210300Z 13010KT 30/18 A2983 RMK A01 T03010178  RH  050%=      5-min Rain = 0
KSE1 210305Z 13011KT 30/18 A2983 RMK A01 T03020177  RH  050%=      5-min Rain = 0
KSE1 210310Z 13011KT 30/18 A2983 RMK A01 T03030177  RH  049%=      5-min Rain = 0
KSE1 210315Z 13011KT 30/18 A2984 RMK A01 T03020177  RH  049%=      5-min Rain = 0
KSE1 210320Z 14012KT 30/18 A2984 RMK A01 T03040177  RH  049%=      5-min Rain = 0
KSE1 210325Z 14012KT 30/18 A2984 RMK A01 T03030177  RH  049%=      5-min Rain = 0
KSE1 210330Z 14011G16KT 30/18 A2984 RMK A01 T03020177  RH  050%=      5-min Rain = 0
KSE1 210335Z 13011KT 30/18 A2984 RMK A01 T03000178  RH  050%=      5-min Rain = 0
KSE1 210340Z 13011KT 30/18 A2984 RMK A01 T02980178  RH  051%=      5-min Rain = 0
KSE1 210345Z 13012G17KT 30/18 A2984 RMK A01 T02970177  RH  051%=      5-min Rain = 0
KSE1 210350Z 14012KT 30/18 A2984 RMK A01 T02970177  RH  051%=      5-min Rain = 0
KSE1 210355Z 13012KT 30/18 A2985 RMK A01 T02960178  RH  052%=      5-min Rain = 0
KSE1 210400Z 13012KT 29/18 A2985 RMK A01 T02940179  RH  053%=      5-min Rain = 0
KSE1 210405Z 13012G17KT 29/18 A2985 RMK A01 T02930180  RH  053%=      5-min Rain = 0
KSE1 210410Z 14011KT 29/18 A2985 RMK A01 T02920180  RH  054%=      5-min Rain = 0
KSE1 210415Z 14012G17KT 29/18 A2985 RMK A01 T02930180  RH  054%=      5-min Rain = 0
KSE1 210420Z 14013G18KT 29/18 A2985 RMK A01 T02930181  RH  054%=      5-min Rain = 0
KSE1 210425Z 14012G18KT 29/18 A2985 RMK A01 T02930181  RH  054%=      5-min Rain = 0
KSE1 210430Z 14014G19KT 29/18 A2985 RMK A01 T02930182  RH  054%=      5-min Rain = 0
KSE1 210435Z 14013G18KT 29/18 A2985 RMK A01 T02920182  RH  054%=      5-min Rain = 0
KSE1 210440Z 14014KT 29/18 A2985 RMK A01 T02910182  RH  055%=      5-min Rain = 0
KSE1 210445Z 14014G19KT 29/18 A2985 RMK A01 T02910182  RH  055%=      5-min Rain = 0
KSE1 210450Z 14012G17KT 29/18 A2985 RMK A01 T02890183  RH  055%=      5-min Rain = 0
KSE1 210455Z 15013G19KT 29/18 A2985 RMK A01 T02890183  RH  055%=      5-min Rain = 0

Page generated in 0.0091 seconds.